sensor_id;sensor_type;location;lat;lon;timestamp;P1;durP1;ratioP1;P2;durP2;ratioP2
7444;SDS011;3764;48.126;11.594;2023-05-08T00:01:12;11.98;;;10.77;;
7444;SDS011;3764;48.126;11.594;2023-05-08T00:03:40;13.15;;;10.85;;
7444;SDS011;3764;48.126;11.594;2023-05-08T00:06:08;12.13;;;10.50;;
7444;SDS011;3764;48.126;11.594;2023-05-08T00:08:36;12.55;;;10.32;;
7444;SDS011;3764;48.126;11.594;2023-05-08T00:11:03;11.93;;;10.00;;
7444;SDS011;3764;48.126;11.594;2023-05-08T00:13:30;11.88;;;10.20;;
7444;SDS011;3764;48.126;11.594;2023-05-08T00:15:57;12.25;;;10.30;;
7444;SDS011;3764;48.126;11.594;2023-05-08T00:18:24;10.75;;;9.65;;
7444;SDS011;3764;48.126;11.594;2023-05-08T00:20:52;11.48;;;9.73;;
7444;SDS011;3764;48.126;11.594;2023-05-08T00:23:19;12.40;;;9.65;;
7444;SDS011;3764;48.126;11.594;2023-05-08T00:25:47;12.38;;;10.55;;
7444;SDS011;3764;48.126;11.594;2023-05-08T00:28:14;11.55;;;10.32;;
7444;SDS011;3764;48.126;11.594;2023-05-08T00:30:41;12.30;;;11.10;;
7444;SDS011;3764;48.126;11.594;2023-05-08T00:33:09;11.55;;;10.38;;
7444;SDS011;3764;48.126;11.594;2023-05-08T00:35:36;11.88;;;10.63;;
7444;SDS011;3764;48.126;11.594;2023-05-08T00:38:05;10.05;;;9.10;;
7444;SDS011;3764;48.126;11.594;2023-05-08T00:40:32;12.25;;;10.95;;
7444;SDS011;3764;48.126;11.594;2023-05-08T00:43:00;12.10;;;10.68;;
7444;SDS011;3764;48.126;11.594;2023-05-08T00:45:30;12.25;;;9.07;;
7444;SDS011;3764;48.126;11.594;2023-05-08T00:48:03;12.77;;;10.63;;
7444;SDS011;3764;48.126;11.594;2023-05-08T00:50:30;12.80;;;10.57;;
7444;SDS011;3764;48.126;11.594;2023-05-08T00:52:58;11.20;;;10.07;;
7444;SDS011;3764;48.126;11.594;2023-05-08T00:55:28;12.07;;;10.07;;
7444;SDS011;3764;48.126;11.594;2023-05-08T00:57:55;11.65;;;10.45;;
7444;SDS011;3764;48.126;11.594;2023-05-08T01:00:23;15.15;;;10.57;;
7444;SDS011;3764;48.126;11.594;2023-05-08T01:02:51;12.10;;;10.80;;
7444;SDS011;3764;48.126;11.594;2023-05-08T01:05:18;11.82;;;10.60;;
7444;SDS011;3764;48.126;11.594;2023-05-08T01:07:45;13.98;;;11.77;;
7444;SDS011;3764;48.126;11.594;2023-05-08T01:10:14;12.05;;;10.82;;
7444;SDS011;3764;48.126;11.594;2023-05-08T01:12:46;12.65;;;10.30;;
7444;SDS011;3764;48.126;11.594;2023-05-08T01:15:20;15.77;;;12.32;;
7444;SDS011;3764;48.126;11.594;2023-05-08T01:17:56;13.57;;;11.90;;
7444;SDS011;3764;48.126;11.594;2023-05-08T01:20:34;12.00;;;10.40;;
7444;SDS011;3764;48.126;11.594;2023-05-08T01:23:18;14.57;;;11.52;;
7444;SDS011;3764;48.126;11.594;2023-05-08T01:26:28;14.40;;;11.63;;
7444;SDS011;3764;48.126;11.594;2023-05-08T01:32:14;13.77;;;10.50;;
7444;SDS011;3764;48.126;11.594;2023-05-08T01:34:47;14.50;;;11.82;;
7444;SDS011;3764;48.126;11.594;2023-05-08T01:37:21;14.48;;;12.40;;
7444;SDS011;3764;48.126;11.594;2023-05-08T01:39:56;12.38;;;10.80;;
7444;SDS011;3764;48.126;11.594;2023-05-08T01:42:38;13.68;;;10.77;;
7444;SDS011;3764;48.126;11.594;2023-05-08T01:45:15;11.32;;;9.70;;
7444;SDS011;3764;48.126;11.594;2023-05-08T01:47:48;12.63;;;11.30;;
7444;SDS011;3764;48.126;11.594;2023-05-08T01:50:21;13.25;;;11.68;;
7444;SDS011;3764;48.126;11.594;2023-05-08T01:52:52;14.40;;;12.45;;
7444;SDS011;3764;48.126;11.594;2023-05-08T01:55:23;14.13;;;11.73;;
7444;SDS011;3764;48.126;11.594;2023-05-08T01:57:56;14.27;;;12.25;;
7444;SDS011;3764;48.126;11.594;2023-05-08T02:00:25;15.13;;;12.73;;
7444;SDS011;3764;48.126;11.594;2023-05-08T02:02:54;14.32;;;11.73;;
7444;SDS011;3764;48.126;11.594;2023-05-08T02:05:22;16.02;;;13.13;;
7444;SDS011;3764;48.126;11.594;2023-05-08T02:07:51;14.73;;;11.73;;
7444;SDS011;3764;48.126;11.594;2023-05-08T02:10:20;13.93;;;11.63;;
7444;SDS011;3764;48.126;11.594;2023-05-08T02:12:50;14.85;;;11.60;;
7444;SDS011;3764;48.126;11.594;2023-05-08T02:15:18;13.40;;;11.45;;
7444;SDS011;3764;48.126;11.594;2023-05-08T02:17:48;15.02;;;11.32;;
7444;SDS011;3764;48.126;11.594;2023-05-08T02:20:19;15.48;;;11.50;;
7444;SDS011;3764;48.126;11.594;2023-05-08T02:22:48;14.90;;;12.20;;
7444;SDS011;3764;48.126;11.594;2023-05-08T02:25:17;12.65;;;10.98;;
7444;SDS011;3764;48.126;11.594;2023-05-08T02:27:45;14.90;;;11.80;;
7444;SDS011;3764;48.126;11.594;2023-05-08T02:30:15;14.13;;;11.35;;
7444;SDS011;3764;48.126;11.594;2023-05-08T02:32:43;15.45;;;12.25;;
7444;SDS011;3764;48.126;11.594;2023-05-08T02:35:12;13.77;;;11.27;;
7444;SDS011;3764;48.126;11.594;2023-05-08T02:37:43;16.70;;;11.35;;
7444;SDS011;3764;48.126;11.594;2023-05-08T02:40:12;17.95;;;12.45;;
7444;SDS011;3764;48.126;11.594;2023-05-08T02:42:42;13.23;;;11.10;;
7444;SDS011;3764;48.126;11.594;2023-05-08T02:45:10;13.38;;;11.38;;
7444;SDS011;3764;48.126;11.594;2023-05-08T02:47:40;13.48;;;12.00;;
7444;SDS011;3764;48.126;11.594;2023-05-08T02:50:13;15.50;;;13.00;;
7444;SDS011;3764;48.126;11.594;2023-05-08T02:52:44;15.68;;;11.57;;
7444;SDS011;3764;48.126;11.594;2023-05-08T02:55:18;13.10;;;10.80;;
7444;SDS011;3764;48.126;11.594;2023-05-08T02:57:57;13.20;;;11.80;;
7444;SDS011;3764;48.126;11.594;2023-05-08T03:00:30;14.45;;;11.75;;
7444;SDS011;3764;48.126;11.594;2023-05-08T03:03:06;13.00;;;11.02;;
7444;SDS011;3764;48.126;11.594;2023-05-08T03:05:38;15.50;;;11.45;;
7444;SDS011;3764;48.126;11.594;2023-05-08T03:08:14;16.05;;;11.73;;
7444;SDS011;3764;48.126;11.594;2023-05-08T03:10:45;13.52;;;10.45;;
7444;SDS011;3764;48.126;11.594;2023-05-08T03:13:17;13.05;;;11.15;;
7444;SDS011;3764;48.126;11.594;2023-05-08T03:15:47;13.65;;;10.30;;
7444;SDS011;3764;48.126;11.594;2023-05-08T03:18:20;13.43;;;11.52;;
7444;SDS011;3764;48.126;11.594;2023-05-08T03:20:52;13.80;;;11.43;;
7444;SDS011;3764;48.126;11.594;2023-05-08T03:23:22;14.93;;;10.50;;
7444;SDS011;3764;48.126;11.594;2023-05-08T03:25:53;13.82;;;10.50;;
7444;SDS011;3764;48.126;11.594;2023-05-08T03:28:23;12.45;;;10.60;;
7444;SDS011;3764;48.126;11.594;2023-05-08T03:30:50;11.60;;;10.32;;
7444;SDS011;3764;48.126;11.594;2023-05-08T03:33:18;11.50;;;9.40;;
7444;SDS011;3764;48.126;11.594;2023-05-08T03:35:48;13.65;;;10.60;;
7444;SDS011;3764;48.126;11.594;2023-05-08T03:38:16;10.93;;;9.32;;
7444;SDS011;3764;48.126;11.594;2023-05-08T03:40:45;11.60;;;10.07;;
7444;SDS011;3764;48.126;11.594;2023-05-08T03:43:13;10.82;;;9.20;;
7444;SDS011;3764;48.126;11.594;2023-05-08T03:45:41;11.98;;;10.07;;
7444;SDS011;3764;48.126;11.594;2023-05-08T03:48:10;12.02;;;9.82;;
7444;SDS011;3764;48.126;11.594;2023-05-08T03:50:38;11.57;;;9.35;;
7444;SDS011;3764;48.126;11.594;2023-05-08T03:53:05;13.75;;;10.43;;
7444;SDS011;3764;48.126;11.594;2023-05-08T03:55:32;13.48;;;10.65;;
7444;SDS011;3764;48.126;11.594;2023-05-08T03:58:02;11.40;;;9.48;;
7444;SDS011;3764;48.126;11.594;2023-05-08T04:00:36;10.50;;;9.40;;
7444;SDS011;3764;48.126;11.594;2023-05-08T04:03:16;11.00;;;9.38;;
7444;SDS011;3764;48.126;11.594;2023-05-08T04:05:49;16.33;;;9.77;;
7444;SDS011;3764;48.126;11.594;2023-05-08T04:08:23;10.32;;;9.30;;
7444;SDS011;3764;48.126;11.594;2023-05-08T04:10:56;10.80;;;9.50;;
7444;SDS011;3764;48.126;11.594;2023-05-08T04:13:33;10.02;;;8.63;;
7444;SDS011;3764;48.126;11.594;2023-05-08T04:16:06;11.05;;;9.40;;
7444;SDS011;3764;48.126;11.594;2023-05-08T04:18:40;13.90;;;9.00;;
7444;SDS011;3764;48.126;11.594;2023-05-08T04:21:11;10.57;;;9.00;;
7444;SDS011;3764;48.126;11.594;2023-05-08T04:23:44;11.32;;;9.20;;
7444;SDS011;3764;48.126;11.594;2023-05-08T04:26:15;13.93;;;9.85;;
7444;SDS011;3764;48.126;11.594;2023-05-08T04:28:44;11.00;;;8.93;;
7444;SDS011;3764;48.126;11.594;2023-05-08T04:31:12;12.45;;;9.48;;
7444;SDS011;3764;48.126;11.594;2023-05-08T04:33:41;13.15;;;10.65;;
7444;SDS011;3764;48.126;11.594;2023-05-08T04:36:10;12.57;;;9.60;;
7444;SDS011;3764;48.126;11.594;2023-05-08T04:38:37;12.57;;;9.35;;
7444;SDS011;3764;48.126;11.594;2023-05-08T04:41:05;10.32;;;8.88;;
7444;SDS011;3764;48.126;11.594;2023-05-08T04:43:32;10.40;;;9.05;;
7444;SDS011;3764;48.126;11.594;2023-05-08T04:46:01;9.57;;;8.55;;
7444;SDS011;3764;48.126;11.594;2023-05-08T04:48:30;9.75;;;8.57;;
7444;SDS011;3764;48.126;11.594;2023-05-08T04:50:58;11.60;;;10.20;;
7444;SDS011;3764;48.126;11.594;2023-05-08T04:53:25;10.55;;;9.45;;
7444;SDS011;3764;48.126;11.594;2023-05-08T04:55:52;12.00;;;9.82;;
7444;SDS011;3764;48.126;11.594;2023-05-08T04:58:19;11.48;;;10.27;;
7444;SDS011;3764;48.126;11.594;2023-05-08T05:00:46;10.55;;;9.45;;
7444;SDS011;3764;48.126;11.594;2023-05-08T05:03:15;10.48;;;9.35;;
7444;SDS011;3764;48.126;11.594;2023-05-08T05:05:42;12.07;;;9.98;;
7444;SDS011;3764;48.126;11.594;2023-05-08T05:08:09;11.43;;;9.32;;
7444;SDS011;3764;48.126;11.594;2023-05-08T05:10:36;11.88;;;9.27;;
7444;SDS011;3764;48.126;11.594;2023-05-08T05:13:04;12.15;;;10.20;;
7444;SDS011;3764;48.126;11.594;2023-05-08T05:15:31;14.43;;;9.57;;
7444;SDS011;3764;48.126;11.594;2023-05-08T05:17:58;12.30;;;9.27;;
7444;SDS011;3764;48.126;11.594;2023-05-08T05:20:26;11.82;;;9.40;;
7444;SDS011;3764;48.126;11.594;2023-05-08T05:22:53;13.02;;;9.77;;
7444;SDS011;3764;48.126;11.594;2023-05-08T05:25:21;12.20;;;10.00;;
7444;SDS011;3764;48.126;11.594;2023-05-08T05:27:48;14.35;;;10.30;;
7444;SDS011;3764;48.126;11.594;2023-05-08T05:30:16;11.15;;;9.52;;
7444;SDS011;3764;48.126;11.594;2023-05-08T05:32:43;13.05;;;9.80;;
7444;SDS011;3764;48.126;11.594;2023-05-08T05:35:10;11.82;;;9.57;;
7444;SDS011;3764;48.126;11.594;2023-05-08T05:37:38;11.80;;;9.80;;
7444;SDS011;3764;48.126;11.594;2023-05-08T05:40:06;11.93;;;9.60;;
7444;SDS011;3764;48.126;11.594;2023-05-08T05:42:34;11.38;;;9.80;;
7444;SDS011;3764;48.126;11.594;2023-05-08T05:45:01;11.82;;;9.98;;
7444;SDS011;3764;48.126;11.594;2023-05-08T05:47:28;13.07;;;10.00;;
7444;SDS011;3764;48.126;11.594;2023-05-08T05:49:55;11.35;;;8.85;;
7444;SDS011;3764;48.126;11.594;2023-05-08T05:52:23;12.13;;;9.52;;
7444;SDS011;3764;48.126;11.594;2023-05-08T05:54:52;11.02;;;9.50;;
7444;SDS011;3764;48.126;11.594;2023-05-08T05:57:19;12.18;;;9.50;;
7444;SDS011;3764;48.126;11.594;2023-05-08T05:59:46;11.80;;;9.68;;
7444;SDS011;3764;48.126;11.594;2023-05-08T06:02:13;11.55;;;9.13;;
7444;SDS011;3764;48.126;11.594;2023-05-08T06:04:42;11.30;;;8.85;;
7444;SDS011;3764;48.126;11.594;2023-05-08T06:07:09;11.82;;;9.20;;
7444;SDS011;3764;48.126;11.594;2023-05-08T06:09:37;12.43;;;10.13;;
7444;SDS011;3764;48.126;11.594;2023-05-08T06:12:05;12.57;;;8.73;;
7444;SDS011;3764;48.126;11.594;2023-05-08T06:14:32;11.85;;;9.50;;
7444;SDS011;3764;48.126;11.594;2023-05-08T06:16:59;10.30;;;9.20;;
7444;SDS011;3764;48.126;11.594;2023-05-08T06:19:26;13.60;;;10.88;;
7444;SDS011;3764;48.126;11.594;2023-05-08T06:21:54;11.98;;;10.20;;
7444;SDS011;3764;48.126;11.594;2023-05-08T06:24:21;12.43;;;10.30;;
7444;SDS011;3764;48.126;11.594;2023-05-08T06:26:48;16.75;;;10.73;;
7444;SDS011;3764;48.126;11.594;2023-05-08T06:29:16;12.45;;;10.00;;
7444;SDS011;3764;48.126;11.594;2023-05-08T06:31:43;12.93;;;10.20;;
7444;SDS011;3764;48.126;11.594;2023-05-08T06:34:10;11.90;;;10.27;;
7444;SDS011;3764;48.126;11.594;2023-05-08T06:36:37;11.65;;;9.93;;
7444;SDS011;3764;48.126;11.594;2023-05-08T06:39:05;13.55;;;10.18;;
7444;SDS011;3764;48.126;11.594;2023-05-08T06:41:32;14.50;;;10.35;;
7444;SDS011;3764;48.126;11.594;2023-05-08T06:43:59;15.30;;;11.43;;
7444;SDS011;3764;48.126;11.594;2023-05-08T06:46:28;16.52;;;10.82;;
7444;SDS011;3764;48.126;11.594;2023-05-08T06:48:55;11.68;;;10.13;;
7444;SDS011;3764;48.126;11.594;2023-05-08T06:51:22;14.93;;;9.65;;
7444;SDS011;3764;48.126;11.594;2023-05-08T06:53:49;13.02;;;10.32;;
7444;SDS011;3764;48.126;11.594;2023-05-08T06:56:16;10.65;;;8.98;;
7444;SDS011;3764;48.126;11.594;2023-05-08T06:58:43;12.95;;;10.77;;
7444;SDS011;3764;48.126;11.594;2023-05-08T07:01:10;11.20;;;10.10;;
7444;SDS011;3764;48.126;11.594;2023-05-08T07:03:38;11.77;;;9.50;;
7444;SDS011;3764;48.126;11.594;2023-05-08T07:06:06;13.70;;;10.52;;
7444;SDS011;3764;48.126;11.594;2023-05-08T07:08:34;15.52;;;11.13;;
7444;SDS011;3764;48.126;11.594;2023-05-08T07:11:02;15.77;;;10.80;;
7444;SDS011;3764;48.126;11.594;2023-05-08T07:13:30;10.98;;;9.85;;
7444;SDS011;3764;48.126;11.594;2023-05-08T07:15:57;10.95;;;9.18;;
7444;SDS011;3764;48.126;11.594;2023-05-08T07:18:24;14.10;;;9.80;;
7444;SDS011;3764;48.126;11.594;2023-05-08T07:20:53;14.10;;;10.25;;
7444;SDS011;3764;48.126;11.594;2023-05-08T07:23:20;13.20;;;9.77;;
7444;SDS011;3764;48.126;11.594;2023-05-08T07:25:47;15.20;;;10.20;;
7444;SDS011;3764;48.126;11.594;2023-05-08T07:28:14;14.20;;;10.30;;
7444;SDS011;3764;48.126;11.594;2023-05-08T07:30:41;12.40;;;9.93;;
7444;SDS011;3764;48.126;11.594;2023-05-08T07:33:08;12.40;;;10.45;;
7444;SDS011;3764;48.126;11.594;2023-05-08T07:35:36;13.25;;;10.65;;
7444;SDS011;3764;48.126;11.594;2023-05-08T07:38:05;15.60;;;11.82;;
7444;SDS011;3764;48.126;11.594;2023-05-08T07:40:32;14.77;;;11.05;;
7444;SDS011;3764;48.126;11.594;2023-05-08T07:42:59;12.75;;;10.75;;
7444;SDS011;3764;48.126;11.594;2023-05-08T07:45:26;15.88;;;10.40;;
7444;SDS011;3764;48.126;11.594;2023-05-08T07:47:54;13.23;;;10.40;;
7444;SDS011;3764;48.126;11.594;2023-05-08T07:50:22;12.85;;;10.13;;
7444;SDS011;3764;48.126;11.594;2023-05-08T07:52:49;11.90;;;10.18;;
7444;SDS011;3764;48.126;11.594;2023-05-08T07:55:18;12.07;;;10.65;;
7444;SDS011;3764;48.126;11.594;2023-05-08T07:57:45;10.75;;;9.60;;
7444;SDS011;3764;48.126;11.594;2023-05-08T08:00:13;13.65;;;10.75;;
7444;SDS011;3764;48.126;11.594;2023-05-08T08:02:41;11.70;;;9.55;;
7444;SDS011;3764;48.126;11.594;2023-05-08T08:05:08;11.50;;;9.82;;
7444;SDS011;3764;48.126;11.594;2023-05-08T08:07:36;11.90;;;9.50;;
7444;SDS011;3764;48.126;11.594;2023-05-08T08:10:03;10.82;;;9.38;;
7444;SDS011;3764;48.126;11.594;2023-05-08T08:12:32;13.70;;;11.15;;
7444;SDS011;3764;48.126;11.594;2023-05-08T08:14:59;12.07;;;10.10;;
7444;SDS011;3764;48.126;11.594;2023-05-08T08:17:26;13.23;;;10.02;;
7444;SDS011;3764;48.126;11.594;2023-05-08T08:19:53;13.93;;;10.75;;
7444;SDS011;3764;48.126;11.594;2023-05-08T08:22:21;11.60;;;9.32;;
7444;SDS011;3764;48.126;11.594;2023-05-08T08:24:48;12.52;;;11.10;;
7444;SDS011;3764;48.126;11.594;2023-05-08T08:27:15;12.48;;;10.15;;
7444;SDS011;3764;48.126;11.594;2023-05-08T08:29:43;12.75;;;10.55;;
7444;SDS011;3764;48.126;11.594;2023-05-08T08:32:10;12.45;;;9.98;;
7444;SDS011;3764;48.126;11.594;2023-05-08T08:34:38;13.18;;;11.05;;
7444;SDS011;3764;48.126;11.594;2023-05-08T08:37:05;12.65;;;10.52;;
7444;SDS011;3764;48.126;11.594;2023-05-08T08:39:32;11.50;;;9.88;;
7444;SDS011;3764;48.126;11.594;2023-05-08T08:41:59;13.23;;;10.63;;
7444;SDS011;3764;48.126;11.594;2023-05-08T08:44:26;16.65;;;10.00;;
7444;SDS011;3764;48.126;11.594;2023-05-08T08:46:55;15.18;;;9.80;;
7444;SDS011;3764;48.126;11.594;2023-05-08T08:49:24;14.85;;;11.10;;
7444;SDS011;3764;48.126;11.594;2023-05-08T08:51:57;14.75;;;11.00;;
7444;SDS011;3764;48.126;11.594;2023-05-08T08:54:27;15.15;;;11.13;;
7444;SDS011;3764;48.126;11.594;2023-05-08T08:56:56;13.02;;;11.38;;
7444;SDS011;3764;48.126;11.594;2023-05-08T08:59:27;14.10;;;10.95;;
7444;SDS011;3764;48.126;11.594;2023-05-08T09:01:57;15.07;;;11.85;;
7444;SDS011;3764;48.126;11.594;2023-05-08T09:04:31;13.18;;;10.80;;
7444;SDS011;3764;48.126;11.594;2023-05-08T09:06:58;12.35;;;10.80;;
7444;SDS011;3764;48.126;11.594;2023-05-08T09:09:26;13.85;;;11.35;;
7444;SDS011;3764;48.126;11.594;2023-05-08T09:11:54;14.75;;;11.40;;
7444;SDS011;3764;48.126;11.594;2023-05-08T09:14:21;14.50;;;10.60;;
7444;SDS011;3764;48.126;11.594;2023-05-08T09:16:50;13.35;;;11.10;;
7444;SDS011;3764;48.126;11.594;2023-05-08T09:19:21;14.82;;;11.38;;
7444;SDS011;3764;48.126;11.594;2023-05-08T09:21:49;14.52;;;11.68;;
7444;SDS011;3764;48.126;11.594;2023-05-08T09:24:16;13.57;;;11.43;;
7444;SDS011;3764;48.126;11.594;2023-05-08T09:26:44;13.73;;;12.27;;
7444;SDS011;3764;48.126;11.594;2023-05-08T09:29:12;19.35;;;13.35;;
7444;SDS011;3764;48.126;11.594;2023-05-08T09:31:41;13.40;;;11.18;;
7444;SDS011;3764;48.126;11.594;2023-05-08T09:34:10;12.30;;;10.93;;
7444;SDS011;3764;48.126;11.594;2023-05-08T09:36:50;17.08;;;12.75;;
7444;SDS011;3764;48.126;11.594;2023-05-08T09:39:20;14.43;;;12.07;;
7444;SDS011;3764;48.126;11.594;2023-05-08T09:41:55;14.45;;;12.57;;
7444;SDS011;3764;48.126;11.594;2023-05-08T09:44:24;14.32;;;12.70;;
7444;SDS011;3764;48.126;11.594;2023-05-08T09:46:51;14.57;;;11.38;;
7444;SDS011;3764;48.126;11.594;2023-05-08T09:49:34;13.88;;;12.43;;
7444;SDS011;3764;48.126;11.594;2023-05-08T09:52:03;14.05;;;11.30;;
7444;SDS011;3764;48.126;11.594;2023-05-08T09:54:30;12.82;;;11.35;;
7444;SDS011;3764;48.126;11.594;2023-05-08T09:56:57;16.00;;;14.00;;
7444;SDS011;3764;48.126;11.594;2023-05-08T09:59:25;17.77;;;14.43;;
7444;SDS011;3764;48.126;11.594;2023-05-08T10:01:53;18.70;;;14.00;;
7444;SDS011;3764;48.126;11.594;2023-05-08T10:04:30;13.68;;;11.82;;
7444;SDS011;3764;48.126;11.594;2023-05-08T10:06:58;16.83;;;13.55;;
7444;SDS011;3764;48.126;11.594;2023-05-08T10:09:27;15.57;;;13.93;;
7444;SDS011;3764;48.126;11.594;2023-05-08T10:11:54;15.73;;;12.70;;
7444;SDS011;3764;48.126;11.594;2023-05-08T10:14:22;21.20;;;14.45;;
7444;SDS011;3764;48.126;11.594;2023-05-08T10:16:51;17.20;;;14.13;;
7444;SDS011;3764;48.126;11.594;2023-05-08T10:19:19;18.10;;;14.18;;
7444;SDS011;3764;48.126;11.594;2023-05-08T10:21:48;18.70;;;14.77;;
7444;SDS011;3764;48.126;11.594;2023-05-08T10:24:16;18.73;;;12.80;;
7444;SDS011;3764;48.126;11.594;2023-05-08T10:26:54;16.95;;;13.88;;
7444;SDS011;3764;48.126;11.594;2023-05-08T10:29:24;18.35;;;13.32;;
7444;SDS011;3764;48.126;11.594;2023-05-08T10:31:58;15.85;;;12.52;;
7444;SDS011;3764;48.126;11.594;2023-05-08T10:34:26;18.77;;;15.60;;
7444;SDS011;3764;48.126;11.594;2023-05-08T10:36:55;19.80;;;15.50;;
7444;SDS011;3764;48.126;11.594;2023-05-08T10:39:22;18.30;;;15.07;;
7444;SDS011;3764;48.126;11.594;2023-05-08T10:41:52;18.92;;;15.32;;
7444;SDS011;3764;48.126;11.594;2023-05-08T10:44:19;18.63;;;14.35;;
7444;SDS011;3764;48.126;11.594;2023-05-08T10:46:48;19.70;;;15.80;;
7444;SDS011;3764;48.126;11.594;2023-05-08T10:49:19;21.25;;;15.15;;
7444;SDS011;3764;48.126;11.594;2023-05-08T10:51:59;21.23;;;16.50;;
7444;SDS011;3764;48.126;11.594;2023-05-08T10:54:37;16.48;;;14.40;;
7444;SDS011;3764;48.126;11.594;2023-05-08T10:57:18;18.52;;;14.55;;
7444;SDS011;3764;48.126;11.594;2023-05-08T10:59:45;18.80;;;15.52;;
7444;SDS011;3764;48.126;11.594;2023-05-08T11:02:13;18.48;;;13.50;;
7444;SDS011;3764;48.126;11.594;2023-05-08T11:04:40;21.48;;;16.10;;
7444;SDS011;3764;48.126;11.594;2023-05-08T11:07:08;24.27;;;16.98;;
7444;SDS011;3764;48.126;11.594;2023-05-08T11:12:32;18.42;;;14.57;;
7444;SDS011;3764;48.126;11.594;2023-05-08T11:15:03;20.80;;;17.13;;
7444;SDS011;3764;48.126;11.594;2023-05-08T11:17:31;22.80;;;16.67;;
7444;SDS011;3764;48.126;11.594;2023-05-08T11:19:59;23.00;;;17.00;;
7444;SDS011;3764;48.126;11.594;2023-05-08T11:22:28;20.98;;;18.08;;
7444;SDS011;3764;48.126;11.594;2023-05-08T11:24:57;22.50;;;18.52;;
7444;SDS011;3764;48.126;11.594;2023-05-08T11:27:37;23.88;;;18.63;;
7444;SDS011;3764;48.126;11.594;2023-05-08T11:30:32;21.88;;;18.88;;
7444;SDS011;3764;48.126;11.594;2023-05-08T11:33:13;18.95;;;15.68;;
7444;SDS011;3764;48.126;11.594;2023-05-08T11:35:41;20.45;;;16.55;;
7444;SDS011;3764;48.126;11.594;2023-05-08T11:38:17;19.05;;;15.70;;
7444;SDS011;3764;48.126;11.594;2023-05-08T11:40:53;21.05;;;16.75;;
7444;SDS011;3764;48.126;11.594;2023-05-08T11:46:37;21.00;;;16.67;;
7444;SDS011;3764;48.126;11.594;2023-05-08T11:49:09;21.05;;;17.38;;
7444;SDS011;3764;48.126;11.594;2023-05-08T11:51:38;20.45;;;15.85;;
7444;SDS011;3764;48.126;11.594;2023-05-08T11:54:09;17.77;;;15.10;;
7444;SDS011;3764;48.126;11.594;2023-05-08T11:56:37;18.25;;;16.00;;
7444;SDS011;3764;48.126;11.594;2023-05-08T11:59:06;17.13;;;14.60;;
7444;SDS011;3764;48.126;11.594;2023-05-08T12:01:34;19.30;;;17.25;;
7444;SDS011;3764;48.126;11.594;2023-05-08T12:04:02;19.85;;;16.92;;
7444;SDS011;3764;48.126;11.594;2023-05-08T12:06:31;20.48;;;17.65;;
7444;SDS011;3764;48.126;11.594;2023-05-08T12:08:59;23.65;;;19.15;;
7444;SDS011;3764;48.126;11.594;2023-05-08T12:11:28;26.15;;;19.30;;
7444;SDS011;3764;48.126;11.594;2023-05-08T12:13:56;18.55;;;16.23;;
7444;SDS011;3764;48.126;11.594;2023-05-08T12:16:24;19.20;;;15.15;;
7444;SDS011;3764;48.126;11.594;2023-05-08T12:18:52;20.48;;;15.82;;
7444;SDS011;3764;48.126;11.594;2023-05-08T12:21:21;16.70;;;14.43;;
7444;SDS011;3764;48.126;11.594;2023-05-08T12:23:48;18.10;;;15.18;;
7444;SDS011;3764;48.126;11.594;2023-05-08T12:26:15;18.98;;;15.85;;
7444;SDS011;3764;48.126;11.594;2023-05-08T12:28:43;19.35;;;14.90;;
7444;SDS011;3764;48.126;11.594;2023-05-08T12:31:11;21.10;;;17.45;;
7444;SDS011;3764;48.126;11.594;2023-05-08T12:33:40;21.00;;;16.88;;
7444;SDS011;3764;48.126;11.594;2023-05-08T12:36:07;21.77;;;17.13;;
7444;SDS011;3764;48.126;11.594;2023-05-08T12:38:35;18.88;;;16.90;;
7444;SDS011;3764;48.126;11.594;2023-05-08T12:41:02;18.88;;;16.55;;
7444;SDS011;3764;48.126;11.594;2023-05-08T12:43:34;18.52;;;16.45;;
7444;SDS011;3764;48.126;11.594;2023-05-08T12:46:02;19.45;;;16.83;;
7444;SDS011;3764;48.126;11.594;2023-05-08T12:48:30;17.77;;;15.60;;
7444;SDS011;3764;48.126;11.594;2023-05-08T12:51:02;21.17;;;18.15;;
7444;SDS011;3764;48.126;11.594;2023-05-08T12:53:31;24.48;;;17.63;;
7444;SDS011;3764;48.126;11.594;2023-05-08T12:56:02;19.63;;;17.38;;
7444;SDS011;3764;48.126;11.594;2023-05-08T12:58:31;21.98;;;17.20;;
7444;SDS011;3764;48.126;11.594;2023-05-08T13:01:03;21.05;;;16.50;;
7444;SDS011;3764;48.126;11.594;2023-05-08T13:03:34;24.92;;;18.35;;
7444;SDS011;3764;48.126;11.594;2023-05-08T13:06:02;20.20;;;16.52;;
7444;SDS011;3764;48.126;11.594;2023-05-08T13:08:30;19.35;;;16.60;;
7444;SDS011;3764;48.126;11.594;2023-05-08T13:10:58;23.27;;;20.87;;
7444;SDS011;3764;48.126;11.594;2023-05-08T13:13:26;24.55;;;18.05;;
7444;SDS011;3764;48.126;11.594;2023-05-08T13:15:56;22.27;;;18.90;;
7444;SDS011;3764;48.126;11.594;2023-05-08T13:18:23;23.70;;;18.45;;
7444;SDS011;3764;48.126;11.594;2023-05-08T13:20:52;21.27;;;17.63;;
7444;SDS011;3764;48.126;11.594;2023-05-08T13:23:20;19.75;;;17.65;;
7444;SDS011;3764;48.126;11.594;2023-05-08T13:25:48;22.15;;;18.58;;
7444;SDS011;3764;48.126;11.594;2023-05-08T13:28:16;20.05;;;17.55;;
7444;SDS011;3764;48.126;11.594;2023-05-08T13:30:43;19.05;;;17.00;;
7444;SDS011;3764;48.126;11.594;2023-05-08T13:33:10;23.52;;;18.45;;
7444;SDS011;3764;48.126;11.594;2023-05-08T13:35:37;21.17;;;18.88;;
7444;SDS011;3764;48.126;11.594;2023-05-08T13:38:04;20.88;;;17.10;;
7444;SDS011;3764;48.126;11.594;2023-05-08T13:40:33;21.42;;;17.80;;
7444;SDS011;3764;48.126;11.594;2023-05-08T13:43:00;21.48;;;16.48;;
7444;SDS011;3764;48.126;11.594;2023-05-08T13:45:27;20.92;;;17.83;;
7444;SDS011;3764;48.126;11.594;2023-05-08T13:47:55;20.20;;;17.98;;
7444;SDS011;3764;48.126;11.594;2023-05-08T13:50:22;18.25;;;16.13;;
7444;SDS011;3764;48.126;11.594;2023-05-08T13:52:49;26.13;;;16.27;;
7444;SDS011;3764;48.126;11.594;2023-05-08T13:55:16;20.33;;;17.17;;
7444;SDS011;3764;48.126;11.594;2023-05-08T13:57:47;22.00;;;17.45;;
7444;SDS011;3764;48.126;11.594;2023-05-08T14:00:15;19.48;;;16.20;;
7444;SDS011;3764;48.126;11.594;2023-05-08T14:02:42;17.98;;;15.35;;
7444;SDS011;3764;48.126;11.594;2023-05-08T14:05:09;20.08;;;15.68;;
7444;SDS011;3764;48.126;11.594;2023-05-08T14:07:36;18.65;;;16.15;;
7444;SDS011;3764;48.126;11.594;2023-05-08T14:10:04;18.80;;;15.70;;
7444;SDS011;3764;48.126;11.594;2023-05-08T14:12:31;17.98;;;15.48;;
7444;SDS011;3764;48.126;11.594;2023-05-08T14:15:02;17.30;;;13.85;;
7444;SDS011;3764;48.126;11.594;2023-05-08T14:17:30;23.40;;;13.80;;
7444;SDS011;3764;48.126;11.594;2023-05-08T14:19:57;14.85;;;12.70;;
7444;SDS011;3764;48.126;11.594;2023-05-08T14:22:24;13.63;;;12.23;;
7444;SDS011;3764;48.126;11.594;2023-05-08T14:24:51;22.33;;;14.20;;
7444;SDS011;3764;48.126;11.594;2023-05-08T14:27:19;16.80;;;12.23;;
7444;SDS011;3764;48.126;11.594;2023-05-08T14:29:46;16.52;;;12.85;;
7444;SDS011;3764;48.126;11.594;2023-05-08T14:32:14;14.60;;;11.63;;
7444;SDS011;3764;48.126;11.594;2023-05-08T14:34:41;16.30;;;11.68;;
7444;SDS011;3764;48.126;11.594;2023-05-08T14:37:08;14.43;;;12.45;;
7444;SDS011;3764;48.126;11.594;2023-05-08T14:39:37;17.33;;;11.65;;
7444;SDS011;3764;48.126;11.594;2023-05-08T14:42:04;12.80;;;10.60;;
7444;SDS011;3764;48.126;11.594;2023-05-08T14:44:31;12.98;;;11.50;;
7444;SDS011;3764;48.126;11.594;2023-05-08T14:46:58;12.75;;;9.98;;
7444;SDS011;3764;48.126;11.594;2023-05-08T14:49:26;12.60;;;10.20;;
7444;SDS011;3764;48.126;11.594;2023-05-08T14:51:55;11.95;;;10.65;;
7444;SDS011;3764;48.126;11.594;2023-05-08T14:54:22;13.85;;;11.00;;
7444;SDS011;3764;48.126;11.594;2023-05-08T14:56:49;15.60;;;11.73;;
7444;SDS011;3764;48.126;11.594;2023-05-08T14:59:16;11.45;;;9.43;;